createdAt,value
2022-10-25T00:00:01.480Z,2.17
2022-10-25T00:02:34.303Z,2.38
2022-10-25T00:05:02.025Z,1.73
2022-10-25T00:07:29.615Z,1.50
2022-10-25T00:09:57.201Z,1.77
2022-10-25T00:12:24.844Z,1.55
2022-10-25T00:14:54.188Z,2.03
2022-10-25T00:17:21.796Z,1.73
2022-10-25T00:19:50.943Z,2.65
2022-10-25T00:22:18.576Z,1.50
2022-10-25T00:24:46.416Z,1.85
2022-10-25T00:27:14.010Z,1.63
2022-10-25T00:29:41.643Z,1.50
2022-10-25T00:32:09.384Z,3.08
2022-10-25T00:34:37.009Z,1.73
2022-10-25T00:37:06.438Z,1.70
2022-10-25T00:39:34.064Z,1.73
2022-10-25T00:42:02.643Z,1.65
2022-10-25T00:45:03.467Z,1.70
2022-10-25T00:47:39.790Z,2.28
2022-10-25T00:50:12.420Z,1.48
2022-10-25T00:52:43.368Z,1.63
2022-10-25T00:55:11.194Z,1.58
2022-10-25T00:57:41.580Z,1.60
2022-10-25T01:00:09.821Z,2.40
2022-10-25T01:02:37.648Z,2.45
2022-10-25T01:05:05.756Z,1.90
2022-10-25T01:07:33.381Z,2.35
2022-10-25T01:10:02.429Z,1.73
2022-10-25T01:12:30.223Z,1.98
2022-10-25T01:14:57.922Z,1.92
2022-10-25T01:17:28.608Z,1.60
2022-10-25T01:20:11.074Z,1.77
2022-10-25T01:22:42.974Z,1.58
2022-10-25T01:25:22.990Z,2.05
2022-10-25T01:30:28.087Z,1.42
2022-10-25T01:33:06.186Z,1.70
2022-10-25T01:35:39.261Z,1.25
2022-10-25T01:38:09.557Z,1.35
2022-10-25T01:40:40.167Z,1.40
2022-10-25T01:43:10.437Z,1.20
2022-10-25T01:45:41.631Z,1.67
2022-10-25T01:48:13.993Z,3.25
2022-10-25T01:50:43.143Z,1.73
2022-10-25T01:53:10.744Z,2.15
2022-10-25T01:55:41.068Z,2.08
2022-10-25T01:58:12.216Z,2.22
2022-10-25T02:00:45.190Z,1.67
2022-10-25T02:03:18.212Z,1.55
2022-10-25T02:05:52.723Z,1.40
2022-10-25T02:08:25.274Z,2.00
2022-10-25T02:10:54.809Z,1.60
2022-10-25T02:13:27.325Z,1.50
2022-10-25T02:15:58.367Z,1.48
2022-10-25T02:20:59.767Z,1.58
2022-10-25T02:23:27.636Z,1.48
2022-10-25T02:25:55.584Z,1.70
2022-10-25T02:28:25.417Z,1.92
2022-10-25T02:30:53.761Z,1.95
2022-10-25T02:33:21.784Z,1.80
2022-10-25T02:36:04.208Z,1.80
2022-10-25T02:38:33.429Z,1.55
2022-10-25T02:41:01.416Z,1.95
2022-10-25T02:46:05.859Z,2.00
2022-10-25T02:48:33.528Z,1.55
2022-10-25T02:51:01.120Z,2.10
2022-10-25T02:53:28.743Z,1.77
2022-10-25T02:56:04.328Z,1.85
2022-10-25T02:58:32.827Z,1.35
2022-10-25T03:01:00.815Z,1.80
2022-10-25T03:03:29.206Z,1.65
2022-10-25T03:05:56.822Z,1.70
2022-10-25T03:08:25.069Z,1.70
2022-10-25T03:10:53.162Z,2.17
2022-10-25T03:13:22.343Z,1.67
2022-10-25T03:15:49.950Z,2.63
2022-10-25T03:18:17.817Z,2.55
2022-10-25T03:20:45.689Z,1.88
2022-10-25T03:23:13.662Z,2.35
2022-10-25T03:25:41.453Z,2.20
2022-10-25T03:28:09.312Z,2.88
2022-10-25T03:30:38.442Z,2.72
2022-10-25T03:33:06.037Z,3.22
2022-10-25T03:35:33.682Z,3.22
2022-10-25T03:38:01.292Z,2.35
2022-10-25T03:40:28.900Z,3.50
2022-10-25T03:42:56.824Z,2.80
2022-10-25T03:45:24.512Z,2.67
2022-10-25T03:47:53.808Z,3.33
2022-10-25T03:50:21.431Z,2.88
2022-10-25T03:52:50.593Z,3.42
2022-10-25T03:55:18.533Z,3.75
2022-10-25T03:57:46.377Z,2.65
2022-10-25T04:00:14.890Z,3.50
2022-10-25T04:02:42.490Z,3.17
2022-10-25T04:05:11.589Z,3.00
2022-10-25T04:07:40.208Z,4.45
2022-10-25T04:10:08.337Z,3.63
2022-10-25T04:12:35.956Z,3.75
2022-10-25T04:15:03.589Z,4.00
2022-10-25T04:17:31.224Z,3.13
2022-10-25T04:19:58.826Z,3.60
2022-10-25T04:22:27.893Z,5.03
2022-10-25T04:24:55.543Z,3.58
2022-10-25T04:27:23.283Z,3.95
2022-10-25T04:29:50.877Z,4.30
2022-10-25T04:34:47.200Z,3.80
2022-10-25T04:37:14.802Z,3.45
2022-10-25T04:39:43.759Z,4.70
2022-10-25T04:42:11.361Z,4.85
2022-10-25T04:44:39.030Z,4.07
2022-10-25T04:47:06.650Z,4.50
2022-10-25T04:49:34.274Z,5.25
2022-10-25T04:52:01.879Z,3.90
2022-10-25T04:54:29.458Z,3.42
2022-10-25T04:56:58.446Z,4.15
2022-10-25T04:59:26.027Z,4.43
2022-10-25T05:01:53.702Z,4.22
2022-10-25T05:04:21.363Z,3.92
2022-10-25T05:06:48.957Z,2.88
2022-10-25T05:09:16.714Z,3.42
2022-10-25T05:11:44.428Z,3.60
2022-10-25T05:14:13.376Z,3.20
2022-10-25T05:16:41.034Z,3.92
2022-10-25T05:19:08.760Z,3.70
2022-10-25T05:21:36.477Z,3.38
2022-10-25T05:24:04.259Z,2.78
2022-10-25T05:26:32.425Z,2.65
2022-10-25T05:29:00.085Z,3.25
2022-10-25T05:31:29.882Z,2.75
2022-10-25T05:33:58.175Z,2.28
2022-10-25T05:36:28.352Z,2.92
2022-10-25T05:38:55.977Z,2.58
2022-10-25T05:41:23.947Z,2.63
2022-10-25T05:43:51.607Z,1.90
2022-10-25T05:46:19.879Z,2.45
2022-10-25T05:48:49.454Z,2.33
2022-10-25T05:51:33.247Z,3.22
2022-10-25T05:54:03.098Z,2.17
2022-10-25T05:56:31.856Z,2.55
2022-10-25T05:59:02.465Z,2.63
2022-10-25T06:01:30.184Z,3.25
2022-10-25T06:03:59.248Z,2.15
2022-10-25T06:06:26.866Z,2.42
2022-10-25T06:08:56.948Z,3.00
2022-10-25T06:11:24.584Z,3.28
2022-10-25T06:13:52.220Z,3.10
2022-10-25T06:16:20.462Z,2.65
2022-10-25T06:18:48.188Z,2.05
2022-10-25T06:21:18.153Z,3.22
2022-10-25T06:23:46.383Z,2.35
2022-10-25T06:26:15.037Z,2.97
2022-10-25T06:28:42.889Z,2.13
2022-10-25T06:31:11.452Z,3.67
2022-10-25T06:33:39.232Z,3.83
2022-10-25T06:36:08.216Z,2.90
2022-10-25T06:38:37.234Z,2.38
2022-10-25T06:41:07.411Z,2.50
2022-10-25T06:43:35.348Z,3.05
2022-10-25T06:46:05.911Z,2.67
2022-10-25T06:48:34.557Z,2.17
2022-10-25T06:51:05.091Z,2.15
2022-10-25T06:53:33.362Z,3.00
2022-10-25T06:56:04.718Z,2.67
2022-10-25T06:58:33.720Z,2.92
2022-10-25T07:01:01.956Z,2.70
2022-10-25T07:03:34.901Z,3.22
2022-10-25T07:06:02.984Z,2.90
2022-10-25T07:08:30.680Z,2.60
2022-10-25T07:10:58.355Z,4.10
2022-10-25T07:13:27.331Z,3.15
2022-10-25T07:15:54.978Z,2.83
2022-10-25T07:18:22.564Z,2.88
2022-10-25T07:20:50.818Z,2.60
2022-10-25T07:23:18.432Z,2.97
2022-10-25T07:25:46.851Z,2.60
2022-10-25T07:28:14.693Z,3.30
2022-10-25T07:30:47.321Z,2.95
2022-10-25T07:33:15.687Z,4.00
2022-10-25T07:35:58.659Z,4.57
2022-10-25T07:38:33.137Z,3.95
2022-10-25T07:41:01.076Z,3.58
2022-10-25T07:43:28.788Z,4.82
2022-10-25T07:45:57.793Z,3.78
2022-10-25T07:48:25.447Z,3.63
2022-10-25T07:50:53.127Z,3.83
2022-10-25T07:53:20.827Z,4.32
2022-10-25T07:55:50.839Z,2.88
2022-10-25T07:58:18.596Z,2.47
2022-10-25T08:00:46.241Z,3.03
2022-10-25T08:03:16.298Z,3.25
2022-10-25T08:05:44.490Z,2.70
2022-10-25T08:08:12.285Z,3.33
2022-10-25T08:10:40.051Z,2.97
2022-10-25T08:13:07.688Z,3.35
2022-10-25T08:15:36.401Z,2.33
2022-10-25T08:18:04.823Z,3.47
2022-10-25T08:21:00.655Z,2.05
2022-10-25T08:23:25.320Z,2.47
2022-10-25T08:25:53.069Z,2.20
2022-10-25T08:28:20.895Z,2.38
2022-10-25T08:30:48.690Z,2.10
2022-10-25T08:33:16.492Z,2.63
2022-10-25T08:35:45.429Z,1.88
2022-10-25T08:38:13.041Z,2.47
2022-10-25T08:40:44.322Z,2.35
2022-10-25T08:43:16.651Z,1.67
2022-10-25T08:45:50.393Z,2.38
2022-10-25T08:48:20.728Z,1.90
2022-10-25T08:50:51.286Z,2.40
2022-10-25T08:53:21.485Z,2.22
2022-10-25T08:56:05.026Z,2.50
2022-10-25T08:58:38.500Z,2.15
2022-10-25T09:01:12.008Z,1.80
2022-10-25T09:06:19.811Z,2.10
2022-10-25T09:08:55.573Z,2.20
2022-10-25T09:11:28.944Z,2.50
2022-10-25T09:14:00.626Z,1.70
2022-10-25T09:16:32.554Z,1.95
2022-10-25T09:19:00.175Z,1.45
2022-10-25T09:21:39.356Z,2.25
2022-10-25T09:24:11.408Z,2.20
2022-10-25T09:26:43.497Z,2.35
2022-10-25T09:29:22.297Z,2.22
2022-10-25T09:31:51.016Z,1.80
2022-10-25T09:34:19.955Z,1.58
2022-10-25T09:36:49.384Z,1.95
2022-10-25T09:39:20.112Z,1.95
2022-10-25T09:41:49.230Z,1.90
2022-10-25T09:44:18.633Z,1.50
2022-10-25T09:46:48.375Z,1.77
2022-10-25T09:49:21.895Z,2.25
2022-10-25T09:51:54.635Z,1.70
2022-10-25T09:54:27.877Z,1.52
2022-10-25T09:56:55.526Z,1.63
2022-10-25T09:59:23.280Z,1.70
2022-10-25T10:01:51.135Z,1.45
2022-10-25T10:04:24.701Z,1.75
2022-10-25T10:06:54.749Z,2.83
2022-10-25T10:09:23.317Z,2.25
2022-10-25T10:11:53.918Z,2.00
2022-10-25T10:14:23.962Z,2.10
2022-10-25T10:16:53.207Z,2.00
2022-10-25T10:19:22.004Z,1.90
2022-10-25T10:21:50.747Z,2.28
2022-10-25T10:24:20.895Z,2.67
2022-10-25T10:26:51.657Z,2.13
2022-10-25T10:29:22.142Z,2.15
2022-10-25T10:31:51.593Z,2.03
2022-10-25T10:34:26.619Z,2.40
2022-10-25T10:37:03.976Z,2.20
2022-10-25T10:39:33.305Z,2.30
2022-10-25T10:42:04.957Z,1.88
2022-10-25T10:44:34.624Z,1.83
2022-10-25T10:47:03.191Z,2.00
2022-10-25T10:49:38.764Z,1.50
2022-10-25T10:52:06.692Z,1.55
2022-10-25T10:54:37.204Z,2.03
2022-10-25T10:57:06.105Z,1.60
2022-10-25T10:59:36.167Z,1.83
2022-10-25T11:02:28.125Z,1.73
2022-10-25T11:04:57.125Z,1.73
2022-10-25T11:07:32.834Z,1.35
2022-10-25T11:10:27.538Z,2.10
2022-10-25T11:13:22.955Z,1.75
2022-10-25T11:16:08.262Z,1.73
2022-10-25T11:18:40.868Z,1.50
2022-10-25T11:21:13.352Z,2.22
2022-10-25T11:23:47.817Z,2.03
2022-10-25T11:26:19.985Z,1.90
2022-10-25T11:28:50.567Z,1.40
2022-10-25T11:31:25.294Z,1.75
2022-10-25T11:34:01.806Z,1.48
2022-10-25T11:36:37.477Z,1.08
2022-10-25T11:39:09.732Z,1.20
2022-10-25T11:41:44.301Z,1.83
2022-10-25T11:44:19.969Z,1.30
2022-10-25T11:46:52.509Z,1.90
2022-10-25T11:49:29.054Z,1.92
2022-10-25T11:52:06.132Z,1.85
2022-10-25T11:54:38.594Z,1.80
2022-10-25T11:57:16.225Z,1.60
2022-10-25T11:59:50.868Z,1.52
2022-10-25T12:02:28.460Z,1.52
2022-10-25T12:05:03.111Z,1.30
2022-10-25T12:07:33.058Z,1.10
2022-10-25T12:10:06.545Z,1.00
2022-10-25T12:12:40.932Z,1.42
2022-10-25T12:15:13.204Z,1.17
2022-10-25T12:17:41.083Z,1.60
2022-10-25T12:20:14.611Z,1.63
2022-10-25T12:22:45.335Z,1.20
2022-10-25T12:25:16.585Z,1.50
2022-10-25T12:27:45.473Z,1.15
2022-10-25T12:30:16.229Z,1.33
2022-10-25T12:32:45.621Z,0.98
2022-10-25T12:35:20.077Z,1.55
2022-10-25T12:37:51.274Z,1.07
2022-10-25T12:40:22.364Z,0.90
2022-10-25T12:42:50.821Z,1.30
2022-10-25T12:45:30.235Z,1.30
2022-10-25T12:48:02.398Z,0.80
2022-10-25T12:50:41.552Z,1.55
2022-10-25T12:53:26.938Z,1.30
2022-10-25T12:58:28.815Z,0.93
2022-10-25T13:01:02.951Z,0.85
2022-10-25T13:03:45.134Z,0.90
2022-10-25T13:06:22.837Z,1.00
2022-10-25T13:08:50.654Z,1.02
2022-10-25T13:11:18.469Z,1.50
2022-10-25T13:13:49.141Z,0.80
2022-10-25T13:16:24.329Z,1.00
2022-10-25T13:19:12.946Z,1.02
2022-10-25T13:22:01.377Z,1.08
2022-10-25T13:24:39.481Z,1.33
2022-10-25T13:27:19.792Z,1.27
2022-10-25T13:29:49.099Z,1.05
2022-10-25T13:32:18.765Z,1.13
2022-10-25T13:34:46.637Z,1.58
2022-10-25T13:37:32.840Z,1.10
2022-10-25T13:40:03.786Z,1.30
2022-10-25T13:42:33.464Z,1.13
2022-10-25T13:45:08.133Z,0.98
2022-10-25T13:47:37.873Z,1.10
2022-10-25T13:50:13.745Z,1.45
2022-10-25T13:52:45.313Z,1.40
2022-10-25T13:55:16.538Z,1.20
2022-10-25T13:57:51.753Z,1.55
2022-10-25T14:03:04.744Z,1.58
2022-10-25T14:05:50.827Z,0.93
2022-10-25T14:08:20.475Z,1.00
2022-10-25T14:10:50.663Z,1.30
2022-10-25T14:13:22.660Z,1.02
2022-10-25T14:15:53.535Z,1.52
2022-10-25T14:18:22.708Z,1.48
2022-10-25T14:20:52.175Z,1.45
2022-10-25T14:23:21.877Z,1.33
2022-10-25T14:25:55.455Z,1.35
2022-10-25T14:28:24.330Z,2.22
2022-10-25T14:30:54.209Z,1.35
2022-10-25T14:33:23.379Z,1.55
2022-10-25T14:35:51.695Z,1.38
2022-10-25T14:38:20.576Z,1.63
2022-10-25T14:40:51.785Z,1.13
2022-10-25T14:43:25.172Z,1.48
2022-10-25T14:45:56.556Z,1.30
2022-10-25T14:48:24.206Z,2.00
2022-10-25T14:50:52.197Z,1.20
2022-10-25T14:53:20.308Z,1.88
2022-10-25T14:55:52.098Z,0.90
2022-10-25T14:58:19.838Z,1.17
2022-10-25T15:00:56.866Z,1.20
2022-10-25T15:03:25.330Z,1.20
2022-10-25T15:05:53.805Z,1.33
2022-10-25T15:08:22.847Z,0.73
2022-10-25T15:10:51.721Z,1.30
2022-10-25T15:13:22.574Z,1.40
2022-10-25T15:15:51.231Z,1.60
2022-10-25T15:18:36.771Z,1.50
2022-10-25T15:21:10.238Z,0.85
2022-10-25T15:23:39.459Z,1.33
2022-10-25T15:26:23.549Z,1.30
2022-10-25T15:28:52.024Z,0.93
2022-10-25T15:31:23.888Z,1.08
2022-10-25T15:33:59.736Z,0.82
2022-10-25T15:36:29.350Z,1.10
2022-10-25T15:39:16.985Z,1.15
2022-10-25T15:41:44.945Z,1.65
2022-10-25T15:44:12.656Z,2.15
2022-10-25T15:46:41.531Z,1.02
2022-10-25T15:49:12.524Z,1.27
2022-10-25T15:51:43.193Z,1.05
2022-10-25T15:54:14.528Z,1.33
2022-10-25T15:56:42.167Z,1.30
2022-10-25T15:59:09.915Z,0.90
2022-10-25T16:01:38.308Z,1.92
2022-10-25T16:04:06.018Z,1.40
2022-10-25T16:06:33.701Z,1.35
2022-10-25T16:09:02.704Z,1.60
2022-10-25T16:11:30.416Z,1.20
2022-10-25T16:13:58.046Z,1.45
2022-10-25T16:16:42.291Z,1.25
2022-10-25T16:19:13.001Z,2.03
2022-10-25T16:21:40.596Z,1.60
2022-10-25T16:24:09.861Z,1.45
2022-10-25T16:26:37.994Z,1.52
2022-10-25T16:29:06.424Z,1.20
2022-10-25T16:31:34.073Z,1.50
2022-10-25T16:34:01.766Z,1.80
2022-10-25T16:36:29.434Z,1.38
2022-10-25T16:38:57.039Z,1.63
2022-10-25T16:41:26.833Z,1.90
2022-10-25T16:43:56.217Z,1.55
2022-10-25T16:46:24.771Z,1.60
2022-10-25T16:48:53.056Z,3.20
2022-10-25T16:51:22.028Z,2.95
2022-10-25T16:53:49.794Z,3.83
2022-10-25T16:56:17.967Z,2.47
2022-10-25T16:58:46.958Z,1.77
2022-10-25T17:01:18.932Z,1.75
2022-10-25T17:03:48.320Z,1.55
2022-10-25T17:06:36.360Z,1.45
2022-10-25T17:09:03.706Z,1.75
2022-10-25T17:11:31.294Z,1.95
2022-10-25T17:14:00.412Z,2.15
2022-10-25T17:16:28.105Z,2.13
2022-10-25T17:18:56.002Z,2.00
2022-10-25T17:21:23.661Z,2.22
2022-10-25T17:23:51.445Z,2.17
2022-10-25T17:26:19.126Z,1.55
2022-10-25T17:28:46.749Z,2.00
2022-10-25T17:31:16.022Z,3.00
2022-10-25T17:33:43.981Z,2.35
2022-10-25T17:36:13.078Z,2.25
2022-10-25T17:38:41.108Z,2.75
2022-10-25T17:41:08.747Z,4.28
2022-10-25T17:43:36.539Z,2.67
2022-10-25T17:46:04.955Z,2.75
2022-10-25T17:48:34.112Z,2.80
2022-10-25T17:51:02.221Z,5.00
2022-10-25T17:53:30.094Z,5.18
2022-10-25T17:55:57.777Z,3.15
2022-10-25T17:58:25.462Z,3.17
2022-10-25T18:00:54.461Z,4.80
2022-10-25T18:03:22.348Z,3.45
2022-10-25T18:05:51.434Z,3.58
2022-10-25T18:08:19.112Z,3.25
2022-10-25T18:10:46.738Z,3.80
2022-10-25T18:13:14.363Z,4.75
2022-10-25T18:15:41.944Z,3.10
2022-10-25T18:18:10.303Z,3.25
2022-10-25T18:20:40.481Z,3.70
2022-10-25T18:23:09.548Z,2.80
2022-10-25T18:25:37.192Z,2.47
2022-10-25T18:28:04.857Z,4.30
2022-10-25T18:30:33.920Z,4.80
2022-10-25T18:33:01.631Z,4.97
2022-10-25T18:35:29.290Z,4.55
2022-10-25T18:37:58.247Z,3.72
2022-10-25T18:40:27.393Z,5.75
2022-10-25T18:42:55.067Z,4.63
2022-10-25T18:45:22.746Z,3.85
2022-10-25T18:47:53.282Z,3.65
2022-10-25T18:50:20.990Z,4.93
2022-10-25T18:52:48.903Z,4.18
2022-10-25T18:57:45.641Z,4.07
2022-10-25T19:00:14.760Z,6.07
2022-10-25T19:02:42.451Z,5.45
2022-10-25T19:05:10.913Z,5.05
2022-10-25T19:07:38.624Z,11.68
2022-10-25T19:10:06.960Z,5.95
2022-10-25T19:12:34.661Z,4.45
2022-10-25T19:15:03.649Z,4.57
2022-10-25T19:17:31.450Z,4.95
2022-10-25T19:19:59.064Z,4.20
2022-10-25T19:22:26.714Z,6.68
2022-10-25T19:24:54.510Z,4.60
2022-10-25T19:27:22.276Z,4.57
2022-10-25T19:29:50.278Z,3.60
2022-10-25T19:32:19.393Z,3.35
2022-10-25T19:34:47.213Z,3.63
2022-10-25T19:37:15.250Z,3.28
2022-10-25T19:39:44.752Z,3.15
2022-10-25T19:42:12.519Z,3.80
2022-10-25T19:44:40.154Z,3.55
2022-10-25T19:47:07.830Z,3.80
2022-10-25T19:49:36.869Z,4.05
2022-10-25T19:52:04.498Z,4.13
2022-10-25T19:54:32.616Z,3.53
2022-10-25T19:57:01.183Z,3.95
2022-10-25T19:59:28.823Z,5.65
2022-10-25T20:01:56.516Z,4.15
2022-10-25T20:04:24.443Z,6.22
2022-10-25T20:06:53.714Z,4.43
2022-10-25T20:09:21.338Z,5.05
2022-10-25T20:11:48.989Z,4.30
2022-10-25T20:14:16.613Z,4.72
2022-10-25T20:16:44.201Z,4.93
2022-10-25T20:19:13.611Z,4.45
2022-10-25T20:21:41.443Z,4.43
2022-10-25T20:24:10.951Z,4.63
2022-10-25T20:26:39.326Z,4.35
2022-10-25T20:29:08.926Z,4.13
2022-10-25T20:31:36.789Z,4.00
2022-10-25T20:34:04.529Z,4.50
2022-10-25T20:36:32.285Z,4.00
2022-10-25T20:38:59.935Z,3.17
2022-10-25T20:41:29.664Z,4.43
2022-10-25T20:43:59.871Z,3.65
2022-10-25T20:46:28.375Z,3.60
2022-10-25T20:48:56.494Z,3.75
2022-10-25T20:51:24.111Z,4.30
2022-10-25T20:53:51.734Z,4.80
2022-10-25T20:56:20.425Z,4.88
2022-10-25T20:58:49.512Z,5.13
2022-10-25T21:01:17.541Z,5.70
2022-10-25T21:03:45.495Z,4.40
2022-10-25T21:06:14.473Z,4.35
2022-10-25T21:08:42.290Z,5.13
2022-10-25T21:11:12.293Z,4.22
2022-10-25T21:13:40.470Z,4.90
2022-10-25T21:16:10.251Z,4.90
2022-10-25T21:18:38.314Z,4.60
2022-10-25T21:21:07.183Z,4.18
2022-10-25T21:23:34.970Z,5.32
2022-10-25T21:26:03.124Z,5.65
2022-10-25T21:28:32.960Z,4.35
2022-10-25T21:31:01.499Z,4.75
2022-10-25T21:33:30.601Z,5.78
2022-10-25T21:36:02.774Z,4.32
2022-10-25T21:38:30.461Z,4.57
2022-10-25T21:41:05.726Z,5.00
2022-10-25T21:46:01.110Z,4.47
2022-10-25T21:48:30.267Z,4.30
2022-10-25T21:50:58.597Z,3.38
2022-10-25T21:53:26.333Z,3.85
2022-10-25T21:56:03.650Z,3.92
2022-10-25T21:58:31.291Z,4.53
2022-10-25T22:00:58.944Z,4.15
2022-10-25T22:03:29.035Z,3.47
2022-10-25T22:05:58.134Z,4.07
2022-10-25T22:08:25.826Z,4.47
2022-10-25T22:13:28.531Z,3.58
2022-10-25T22:15:59.770Z,4.15
2022-10-25T22:22:02.766Z,3.33
2022-10-25T22:24:30.371Z,3.55
2022-10-25T22:27:04.833Z,3.17
2022-10-25T22:32:42.994Z,4.50
2022-10-25T22:35:11.288Z,3.20
2022-10-25T22:37:40.403Z,3.15
2022-10-25T22:40:08.511Z,3.25
2022-10-25T22:42:36.222Z,3.90
2022-10-25T22:45:03.958Z,3.03
2022-10-25T22:47:31.577Z,3.10
2022-10-25T22:49:59.203Z,3.50
2022-10-25T22:52:26.818Z,2.97
2022-10-25T22:54:55.780Z,2.97
2022-10-25T22:57:23.686Z,2.45
2022-10-25T22:59:51.375Z,4.10
2022-10-25T23:02:19.133Z,2.90
2022-10-25T23:04:46.715Z,2.70
2022-10-25T23:07:14.464Z,3.85
2022-10-25T23:09:42.090Z,2.80
2022-10-25T23:12:11.128Z,2.75
2022-10-25T23:14:38.752Z,2.53
2022-10-25T23:17:06.339Z,2.50
2022-10-25T23:19:34.169Z,2.47
2022-10-25T23:22:01.797Z,2.45
2022-10-25T23:24:29.419Z,2.03
2022-10-25T23:26:57.047Z,2.67
2022-10-25T23:29:25.988Z,2.55
2022-10-25T23:31:53.614Z,2.50
2022-10-25T23:34:21.262Z,2.00
2022-10-25T23:36:48.918Z,2.30
2022-10-25T23:39:16.559Z,2.42
2022-10-25T23:41:44.429Z,2.40
2022-10-25T23:44:12.065Z,2.35
2022-10-25T23:46:41.168Z,1.63
2022-10-25T23:49:08.766Z,2.28
2022-10-25T23:51:36.349Z,2.13
2022-10-25T23:54:03.943Z,2.15
2022-10-25T23:56:31.548Z,2.08
2022-10-25T23:58:59.247Z,2.78
